Time;durP1;ratioP1;P1;durP2;ratioP2;P2;SDS_P1;SDS_P2;PMS_P1;PMS_P2;Temp;Humidity;BMP_temperature;BMP_pressure;BME280_temperature;BME280_humidity;BME280_pressure;Samples;Min_cycle;Max_cycle;Signal;HPM_P1;HPM_P2
2023/09/06 00:00:19;;;;;;;4.78;3.90;;;;;;;16.67;73.92;101623.03;7398773;19;20018;-69
2023/09/06 00:02:47;;;;;;;5.90;4.00;;;;;;;16.65;74.21;101624.00;7397490;19;20042;-70
2023/09/06 00:05:16;;;;;;;5.15;4.30;;;;;;;16.62;74.32;101609.06;7397622;19;20019;-70
2023/09/06 00:07:44;;;;;;;6.07;4.35;;;;;;;16.59;74.57;101617.09;7398816;19;20019;-70
2023/09/06 00:10:16;;;;;;;5.57;4.20;;;;;;;16.56;74.77;101604.81;7396572;19;20038;-69
2023/09/06 00:12:47;;;;;;;5.78;4.55;;;;;;;16.53;75.01;101598.75;7398269;19;20007;-70
2023/09/06 00:15:18;;;;;;;5.97;4.55;;;;;;;16.50;75.11;101604.16;7397119;19;20011;-69
2023/09/06 00:17:47;;;;;;;6.53;4.80;;;;;;;16.44;74.96;101598.16;7398949;19;20013;-69
2023/09/06 00:20:20;;;;;;;7.35;4.55;;;;;;;16.39;75.30;101592.16;7396262;19;20032;-69
2023/09/06 00:22:56;;;;;;;5.30;4.43;;;;;;;16.35;75.43;101590.53;7393734;19;20018;-68
2023/09/06 00:25:25;;;;;;;7.22;4.50;;;;;;;16.30;75.41;101589.78;7397120;19;20015;-69
2023/09/06 00:27:57;;;;;;;8.43;4.78;;;;;;;16.25;75.54;101586.41;7397749;19;20015;-70
2023/09/06 00:30:26;;;;;;;5.78;4.70;;;;;;;16.21;75.56;101587.44;7398348;19;20087;-70
2023/09/06 00:32:54;;;;;;;6.35;4.75;;;;;;;16.17;75.89;101593.75;7397987;19;20014;-68
2023/09/06 00:35:24;;;;;;;6.30;5.07;;;;;;;16.12;76.13;101589.47;7396630;19;20031;-69
2023/09/06 00:37:53;;;;;;;6.05;5.25;;;;;;;16.09;76.24;101596.66;7397726;19;20014;-70
2023/09/06 00:40:22;;;;;;;7.40;4.75;;;;;;;16.08;76.02;101597.56;7396692;19;20027;-69
2023/09/06 00:42:51;;;;;;;5.70;5.15;;;;;;;16.04;76.01;101590.63;7396061;19;20014;-69
2023/09/06 00:45:26;;;;;;;6.82;5.07;;;;;;;16.02;76.37;101588.00;7395982;19;20023;-70
2023/09/06 00:47:55;;;;;;;6.40;4.80;;;;;;;15.98;76.19;101586.38;7397608;19;20014;-69
2023/09/06 00:50:25;;;;;;;9.38;4.97;;;;;;;15.94;76.28;101601.47;7397001;19;20007;-69
2023/09/06 00:52:55;;;;;;;6.72;4.70;;;;;;;15.91;76.41;101598.06;7397758;19;20010;-70
2023/09/06 00:55:24;;;;;;;6.28;4.85;;;;;;;15.88;76.55;101595.53;7395994;19;20027;-70
2023/09/06 00:57:52;;;;;;;7.03;4.55;;;;;;;15.88;76.78;101598.16;7397052;19;20011;-69
2023/09/06 01:00:25;;;;;;;11.85;5.18;;;;;;;15.85;76.85;101595.63;7396571;19;20090;-69
2023/09/06 01:02:54;;;;;;;5.65;5.15;;;;;;;15.83;76.86;101597.44;7395211;19;20015;-69
2023/09/06 01:05:23;;;;;;;5.72;4.97;;;;;;;15.79;76.75;101597.47;7395659;19;20093;-69
2023/09/06 01:07:55;;;;;;;6.28;5.25;;;;;;;15.76;76.80;101597.59;7396426;19;20426;-69
2023/09/06 01:10:24;;;;;;;5.28;4.78;;;;;;;15.73;76.96;101603.00;7396348;19;20007;-69
2023/09/06 01:12:55;;;;;;;5.95;5.43;;;;;;;15.70;77.34;101597.78;7397341;19;20046;-67
2023/09/06 01:15:27;;;;;;;6.95;5.13;;;;;;;15.69;77.16;101600.47;7395665;19;20047;-67
2023/09/06 01:17:57;;;;;;;9.23;5.35;;;;;;;15.67;77.16;101597.00;7396156;19;20010;-68
2023/09/06 01:20:36;;;;;;;8.57;5.53;;;;;;;15.65;77.53;101602.34;7395989;19;20018;-68
2023/09/06 01:23:15;;;;;;;5.85;5.25;;;;;;;15.62;77.28;101597.16;7394778;19;20368;-69
2023/09/06 01:25:47;;;;;;;6.28;4.88;;;;;;;15.59;77.70;101605.16;7394635;19;20035;-67
2023/09/06 01:28:16;;;;;;;6.47;5.15;;;;;;;15.54;77.47;101594.69;7396634;19;20094;-67
2023/09/06 01:30:44;;;;;;;7.32;4.90;;;;;;;15.53;77.49;101600.03;7394405;19;20014;-68
2023/09/06 01:33:13;;;;;;;5.55;4.65;;;;;;;15.48;77.30;101595.75;7394795;19;20074;-68
2023/09/06 01:35:42;;;;;;;6.25;5.35;;;;;;;15.44;77.53;101596.75;7394560;19;20018;-69
2023/09/06 01:38:11;;;;;;;5.72;5.13;;;;;;;15.39;77.38;101593.38;7395869;19;20014;-68
2023/09/06 01:40:40;;;;;;;6.43;5.30;;;;;;;15.35;77.67;101597.00;7394472;19;20010;-68
2023/09/06 01:43:11;;;;;;;5.50;4.80;;;;;;;15.30;77.71;101596.25;7394003;19;20074;-68
2023/09/06 01:45:41;;;;;;;5.72;5.13;;;;;;;15.27;77.87;101599.00;7394134;19;20014;-67
2023/09/06 01:48:09;;;;;;;6.15;5.38;;;;;;;15.21;77.83;101596.53;7395226;19;20433;-67
2023/09/06 01:50:38;;;;;;;6.05;5.40;;;;;;;15.18;77.77;101596.59;7400394;19;20489;-69
2023/09/06 01:53:06;;;;;;;5.30;4.80;;;;;;;15.12;77.97;101598.50;7399058;19;20372;-68
2023/09/06 01:55:35;;;;;;;10.60;5.25;;;;;;;15.09;78.02;101600.34;7394236;19;20024;-68
2023/09/06 01:58:03;;;;;;;6.25;5.35;;;;;;;15.06;78.04;101603.09;7395262;19;20015;-68
2023/09/06 02:00:37;;;;;;;6.95;5.57;;;;;;;15.03;78.19;101595.25;7395243;19;20024;-67
2023/09/06 02:03:06;;;;;;;5.82;5.22;;;;;;;14.98;78.06;101596.22;7394384;19;20014;-68
2023/09/06 02:05:36;;;;;;;5.80;5.22;;;;;;;14.96;78.29;101597.19;7393213;19;20038;-68
2023/09/06 02:08:06;;;;;;;6.93;5.53;;;;;;;14.93;78.35;101594.63;7394636;19;20358;-67
2023/09/06 02:10:34;;;;;;;7.05;5.57;;;;;;;14.90;78.38;101594.69;7394969;19;20018;-68
2023/09/06 02:13:03;;;;;;;6.57;5.60;;;;;;;14.89;78.50;101590.34;7394651;19;20011;-68
2023/09/06 02:15:32;;;;;;;5.97;5.38;;;;;;;14.87;78.62;101590.38;7393513;19;20090;-67
2023/09/06 02:18:04;;;;;;;7.20;6.07;;;;;;;14.86;78.60;101598.34;7392676;19;20015;-67
2023/09/06 02:20:33;;;;;;;7.03;6.05;;;;;;;14.85;78.69;101599.25;7392986;19;20018;-68
2023/09/06 02:23:02;;;;;;;6.70;6.00;;;;;;;14.81;78.81;101601.97;7393543;19;20010;-68
2023/09/06 02:25:31;;;;;;;6.45;5.82;;;;;;;14.78;79.04;101599.38;7392906;19;20498;-68
2023/09/06 02:28:03;;;;;;;6.47;5.88;;;;;;;14.75;78.96;101609.19;7394254;19;20011;-68
2023/09/06 02:30:32;;;;;;;6.35;5.75;;;;;;;14.71;79.04;101607.50;7394752;19;20021;-66
2023/09/06 02:33:04;;;;;;;6.55;5.68;;;;;;;14.69;79.12;101612.84;7394405;19;20010;-68
2023/09/06 02:35:40;;;;;;;8.10;6.10;;;;;;;14.66;78.96;101618.22;7392363;19;20014;-68
2023/09/06 02:38:08;;;;;;;6.38;5.78;;;;;;;14.62;79.10;101616.50;7392656;19;20011;-67
2023/09/06 02:40:43;;;;;;;6.55;5.82;;;;;;;14.60;79.29;101610.41;7392505;19;20015;-67
2023/09/06 02:43:18;;;;;;;5.97;5.38;;;;;;;14.57;79.29;101615.75;7393002;19;20094;-68
2023/09/06 02:45:49;;;;;;;6.95;6.10;;;;;;;14.53;79.22;101612.31;7393683;19;20019;-67
2023/09/06 02:48:21;;;;;;;7.40;6.32;;;;;;;14.50;79.29;101615.03;7401247;19;20006;-68
2023/09/06 02:50:51;;;;;;;7.35;5.85;;;;;;;14.45;79.41;101607.22;7401724;19;20015;-67
2023/09/06 02:53:22;;;;;;;6.95;5.70;;;;;;;14.43;79.58;101610.81;7400748;19;20018;-67
2023/09/06 02:55:51;;;;;;;6.68;5.95;;;;;;;14.39;79.63;101607.38;7398528;19;20078;-67
2023/09/06 02:58:23;;;;;;;7.72;6.13;;;;;;;14.36;79.69;101612.72;7400913;19;20042;-68
2023/09/06 03:00:55;;;;;;;6.30;5.70;;;;;;;14.34;79.68;101609.25;7401284;19;20024;-68
2023/09/06 03:03:26;;;;;;;6.43;5.82;;;;;;;14.30;79.64;101607.59;7398757;19;20026;-68
2023/09/06 03:05:58;;;;;;;9.63;6.68;;;;;;;14.26;79.62;101608.56;7398310;19;20018;-67
2023/09/06 03:08:28;;;;;;;7.47;5.70;;;;;;;14.23;79.86;101608.63;7401140;19;20082;-68
2023/09/06 03:10:56;;;;;;;9.13;5.72;;;;;;;14.21;79.82;101613.09;7400452;19;20017;-68
2023/09/06 03:13:25;;;;;;;6.50;5.90;;;;;;;14.16;79.86;101610.56;7400136;19;20081;-67
2023/09/06 03:15:53;;;;;;;6.50;5.90;;;;;;;14.14;79.74;101612.34;7398860;19;20015;-68
2023/09/06 03:18:22;;;;;;;8.05;5.75;;;;;;;14.11;79.98;101605.38;7408773;19;20082;-68
2023/09/06 03:20:55;;;;;;;6.97;5.93;;;;;;;14.07;80.01;101611.63;7404334;19;20015;-68
2023/09/06 03:23:24;;;;;;;6.65;5.95;;;;;;;14.04;80.03;101602.91;7399433;19;20007;-68
2023/09/06 03:25:54;;;;;;;8.23;5.90;;;;;;;13.99;79.98;101606.53;7402519;19;20015;-67
2023/09/06 03:28:25;;;;;;;6.78;5.45;;;;;;;13.97;79.86;101610.09;7400577;19;20011;-67
2023/09/06 03:30:54;;;;;;;6.22;5.63;;;;;;;13.94;79.93;101610.16;7400094;19;20022;-68
2023/09/06 03:33:22;;;;;;;7.55;5.45;;;;;;;13.91;80.01;101613.72;7399813;19;20018;-67
2023/09/06 03:35:54;;;;;;;7.68;5.85;;;;;;;13.89;80.15;101609.38;7396902;19;20473;-68
2023/09/06 03:38:25;;;;;;;6.30;5.68;;;;;;;13.85;80.21;101614.75;7399818;19;20070;-67
2023/09/06 03:40:54;;;;;;;5.70;5.15;;;;;;;13.83;80.02;101607.78;7398373;19;20070;-68
2023/09/06 03:43:30;;;;;;;7.53;6.05;;;;;;;13.80;79.96;101610.44;7396773;19;20015;-67
2023/09/06 03:45:59;;;;;;;8.65;6.70;;;;;;;13.77;79.93;101606.13;7397349;19;20018;-68
2023/09/06 03:48:30;;;;;;;6.60;5.85;;;;;;;13.73;80.08;101609.72;7398871;19;20494;-67
2023/09/06 03:51:02;;;;;;;9.75;7.45;;;;;;;13.70;80.15;101615.06;7397367;19;20078;-67
2023/09/06 03:53:31;;;;;;;13.27;10.90;;;;;;;13.69;80.26;101614.19;7399212;19;20264;-67
2023/09/06 03:56:00;;;;;;;13.00;10.90;;;;;;;13.66;80.28;101613.38;7396781;19;20014;-67
2023/09/06 03:58:29;;;;;;;13.02;11.57;;;;;;;13.64;80.26;101613.41;7398513;19;20015;-68
2023/09/06 04:00:58;;;;;;;12.95;11.68;;;;;;;13.62;80.20;101617.00;7398858;19;20007;-67
2023/09/06 04:03:26;;;;;;;13.48;11.50;;;;;;;13.60;80.54;101614.38;7397082;19;20010;-68
2023/09/06 04:05:57;;;;;;;12.18;10.77;;;;;;;13.60;80.63;101621.44;7396169;19;20427;-67
2023/09/06 04:08:28;;;;;;;12.00;8.68;;;;;;;13.57;80.78;101613.59;7398398;19;20504;-67
2023/09/06 04:10:57;;;;;;;9.15;6.50;;;;;;;13.56;80.91;101618.00;7399070;19;20031;-66
2023/09/06 04:13:25;;;;;;;7.28;6.05;;;;;;;13.54;80.97;101613.66;7398235;19;20477;-67
2023/09/06 04:15:54;;;;;;;7.15;6.30;;;;;;;13.51;81.11;101612.81;7396875;19;20035;-67
2023/09/06 04:18:23;;;;;;;8.68;4.95;;;;;;;13.49;81.15;101619.88;7398256;19;20112;-66
2023/09/06 04:20:51;;;;;;;9.45;8.40;;;;;;;13.46;81.00;101617.31;7397621;19;20030;-67
2023/09/06 04:23:19;;;;;;;11.93;9.65;;;;;;;13.44;81.03;101616.47;7396078;19;20034;-67
2023/09/06 04:25:51;;;;;;;10.00;9.00;;;;;;;13.45;81.33;101620.84;7396139;19;20031;-66
2023/09/06 04:28:21;;;;;;;10.25;8.98;;;;;;;13.44;81.30;101624.38;7400453;19;20014;-67
2023/09/06 04:30:49;;;;;;;11.75;9.88;;;;;;;13.44;81.38;101631.41;7398663;19;20023;-67
2023/09/06 04:33:18;;;;;;;11.48;10.27;;;;;;;13.42;81.64;101638.47;7397303;19;20505;-67
2023/09/06 04:35:48;;;;;;;10.45;8.43;;;;;;;13.41;81.44;101639.38;7395566;19;20014;-67
2023/09/06 04:38:18;;;;;;;9.18;8.18;;;;;;;13.39;81.61;101638.56;7397074;19;20087;-67
2023/09/06 04:40:48;;;;;;;10.48;8.27;;;;;;;13.36;81.71;101637.66;7396540;19;20022;-67
2023/09/06 04:43:22;;;;;;;8.32;7.53;;;;;;;13.34;81.59;101633.31;7399037;19;20017;-68
2023/09/06 04:45:52;;;;;;;9.00;8.10;;;;;;;13.34;81.27;101642.13;7398478;19;20046;-67
2023/09/06 04:48:23;;;;;;;10.68;7.60;;;;;;;13.33;81.83;101645.66;7397275;19;20010;-67
2023/09/06 04:50:52;;;;;;;10.73;7.32;;;;;;;13.32;81.96;101651.81;7397010;19;20505;-67
2023/09/06 04:53:21;;;;;;;9.65;6.57;;;;;;;13.32;81.72;101654.44;7394839;19;20082;-67
2023/09/06 04:55:52;;;;;;;8.30;5.95;;;;;;;13.32;81.68;101661.47;7396418;19;20070;-67
2023/09/06 04:58:23;;;;;;;6.07;4.78;;;;;;;13.31;81.76;101662.38;7397365;19;20030;-67
2023/09/06 05:00:52;;;;;;;6.28;5.30;;;;;;;13.29;81.75;101666.81;7395325;19;20025;-66
2023/09/06 05:03:22;;;;;;;7.22;5.05;;;;;;;13.27;81.55;101665.94;7394164;19;20502;-67
2023/09/06 05:05:51;;;;;;;7.38;4.68;;;;;;;13.24;81.43;101664.25;7393507;19;20014;-67
2023/09/06 05:08:20;;;;;;;9.45;5.47;;;;;;;13.22;81.19;101675.72;7393280;19;20034;-67
2023/09/06 05:10:52;;;;;;;5.97;5.38;;;;;;;13.19;81.29;101677.53;7395462;19;20034;-67
2023/09/06 05:13:22;;;;;;;7.28;5.47;;;;;;;13.18;81.14;101683.69;7395399;19;20023;-67
2023/09/06 05:15:50;;;;;;;8.02;5.38;;;;;;;13.17;80.99;101686.34;7394141;19;20031;-67
2023/09/06 05:18:19;;;;;;;6.05;5.35;;;;;;;13.16;81.04;101680.19;7395474;19;20352;-67
2023/09/06 05:20:47;;;;;;;6.07;4.50;;;;;;;13.14;80.92;101675.84;7395488;19;20031;-68
2023/09/06 05:23:17;;;;;;;7.45;6.00;;;;;;;13.14;80.85;101673.22;7394436;19;20042;-68
2023/09/06 05:25:46;;;;;;;9.20;4.88;;;;;;;13.13;80.99;101688.16;7392778;19;20015;-67
2023/09/06 05:28:15;;;;;;;7.70;5.22;;;;;;;13.15;81.06;101689.00;7394984;19;20022;-67
2023/09/06 05:30:48;;;;;;;14.15;5.47;;;;;;;13.16;80.95;101692.50;7394448;19;20481;-66
2023/09/06 05:33:17;;;;;;;9.88;5.40;;;;;;;13.16;81.01;101689.88;7395587;19;20477;-66
2023/09/06 05:35:46;;;;;;;8.00;5.85;;;;;;;13.17;81.20;101691.63;7393678;19;20109;-65
2023/09/06 05:38:14;;;;;;;9.45;5.75;;;;;;;13.20;81.05;101692.44;7393045;19;20077;-66
2023/09/06 05:40:43;;;;;;;6.38;5.47;;;;;;;13.22;81.27;101694.16;7394492;19;20074;-67
2023/09/06 05:43:12;;;;;;;8.25;6.90;;;;;;;13.23;81.18;101702.06;7395034;19;20074;-67
2023/09/06 05:45:40;;;;;;;7.10;6.35;;;;;;;13.27;81.43;101705.47;7394371;19;20031;-64
2023/09/06 05:48:11;;;;;;;8.32;6.07;;;;;;;13.30;81.35;101701.03;7395377;19;20068;-64
2023/09/06 05:50:40;;;;;;;7.40;6.30;;;;;;;13.35;81.22;101696.53;7393704;19;20018;-66
2023/09/06 05:53:08;;;;;;;6.47;5.78;;;;;;;13.39;81.20;101701.81;7394852;19;20024;-68
2023/09/06 05:55:38;;;;;;;11.60;6.90;;;;;;;13.42;81.31;101694.72;7393817;19;20019;-67
2023/09/06 05:58:06;;;;;;;9.63;7.18;;;;;;;13.44;81.27;101698.19;7394460;19;20015;-67
2023/09/06 06:00:36;;;;;;;8.00;6.10;;;;;;;13.47;81.08;101702.50;7394521;19;20022;-67
2023/09/06 06:03:05;;;;;;;8.88;6.63;;;;;;;13.51;81.26;101710.34;7393778;19;20090;-67
2023/09/06 06:05:36;;;;;;;8.85;7.45;;;;;;;13.56;81.36;101701.47;7392166;19;20371;-67
2023/09/06 06:08:04;;;;;;;10.65;6.70;;;;;;;13.60;81.31;101705.81;7394385;19;20372;-68
2023/09/06 06:10:34;;;;;;;8.32;6.72;;;;;;;13.65;81.24;101707.47;7394490;19;20079;-68
2023/09/06 06:13:03;;;;;;;8.07;7.15;;;;;;;13.72;81.12;101715.25;7394043;19;20472;-67
2023/09/06 06:15:32;;;;;;;11.98;7.28;;;;;;;13.77;81.32;101711.59;7393067;19;20038;-67
2023/09/06 06:18:00;;;;;;;7.70;6.68;;;;;;;13.82;81.32;101717.66;7394004;19;20014;-68
2023/09/06 06:20:29;;;;;;;8.95;7.28;;;;;;;13.89;81.21;101720.19;7397417;19;20477;-68
2023/09/06 06:23:00;;;;;;;7.38;6.57;;;;;;;13.94;81.51;101719.19;7401296;19;20010;-68
2023/09/06 06:25:28;;;;;;;11.45;7.50;;;;;;;14.01;81.49;101719.94;7398194;19;20019;-67
2023/09/06 06:27:57;;;;;;;7.95;7.15;;;;;;;14.07;81.21;101714.53;7401533;19;20496;-68
2023/09/06 06:30:25;;;;;;;9.13;7.50;;;;;;;14.14;81.22;101720.53;7398658;19;20058;-68
2023/09/06 06:32:55;;;;;;;10.23;7.93;;;;;;;14.21;81.64;101718.66;7400836;19;20078;-67
2023/09/06 06:35:23;;;;;;;8.15;7.18;;;;;;;14.28;81.49;101709.69;7399203;19;20481;-67
2023/09/06 06:37:53;;;;;;;8.70;7.38;;;;;;;14.34;81.34;101710.44;7401510;19;20051;-67
2023/09/06 06:40:26;;;;;;;11.15;7.40;;;;;;;14.41;81.31;101708.53;7400967;19;20018;-67
2023/09/06 06:43:01;;;;;;;9.03;7.50;;;;;;;14.49;81.11;101709.25;7397570;19;20024;-67
2023/09/06 06:45:36;;;;;;;12.35;10.85;;;;;;;14.58;81.13;101707.28;7398204;19;21066;-66
2023/09/06 06:48:04;;;;;;;15.88;11.23;;;;;;;14.66;80.90;101713.28;7400791;19;20031;-66
2023/09/06 06:50:30;;;;;;;10.48;9.15;;;;;;;14.74;80.96;101715.75;7400132;19;20014;-66
2023/09/06 06:52:59;;;;;;;9.05;8.10;;;;;;;14.81;80.99;101715.56;7400307;19;20011;-66
2023/09/06 06:55:30;;;;;;;10.38;8.80;;;;;;;14.90;80.79;101711.84;7398464;19;20014;-66
2023/09/06 06:57:58;;;;;;;9.50;8.60;;;;;;;14.98;80.66;101714.28;7400262;19;20454;-66
2023/09/06 07:00:31;;;;;;;10.45;8.32;;;;;;;15.07;80.51;101713.19;7400524;19;20032;-66
2023/09/06 07:03:00;;;;;;;9.90;8.90;;;;;;;15.18;80.35;101718.19;7400526;19;20360;-66
2023/09/06 07:05:28;;;;;;;10.38;9.23;;;;;;;15.26;80.20;101711.78;7397337;19;20035;-65
2023/09/06 07:07:57;;;;;;;10.80;9.70;;;;;;;15.35;80.05;101713.34;7399634;19;20023;-68
2023/09/06 07:10:25;;;;;;;10.60;8.93;;;;;;;15.44;79.87;101710.47;7397462;19;20027;-66
2023/09/06 07:12:56;;;;;;;11.32;8.93;;;;;;;15.54;79.75;101716.34;7397579;19;20006;-66
2023/09/06 07:15:24;;;;;;;10.60;8.93;;;;;;;15.63;79.32;101712.59;7398243;19;20078;-66
2023/09/06 07:17:53;;;;;;;10.93;9.32;;;;;;;15.72;79.44;101717.66;7399906;19;20018;-67
2023/09/06 07:20:22;;;;;;;10.15;8.98;;;;;;;15.80;79.56;101715.63;7400334;19;20010;-66
2023/09/06 07:22:51;;;;;;;10.32;8.70;;;;;;;15.89;79.27;101722.47;7399729;19;20019;-67
2023/09/06 07:25:19;;;;;;;9.18;8.27;;;;;;;15.99;79.01;101724.88;7397081;19;20484;-67
2023/09/06 07:27:48;;;;;;;10.85;8.15;;;;;;;16.08;78.99;101722.81;7399882;19;20014;-67
2023/09/06 07:30:19;;;;;;;12.63;8.13;;;;;;;16.20;78.63;101726.00;7399440;19;20493;-67
2023/09/06 07:32:47;;;;;;;9.68;8.00;;;;;;;16.28;78.57;101731.97;7398369;19;20072;-67
2023/09/06 07:35:17;;;;;;;11.75;8.75;;;;;;;16.38;78.29;101730.78;7397333;19;20010;-67
2023/09/06 07:37:45;;;;;;;10.40;8.23;;;;;;;16.48;78.23;101730.47;7399826;19;20019;-67
2023/09/06 07:40:14;;;;;;;10.43;8.90;;;;;;;16.57;77.99;101735.50;7399672;19;20010;-67
2023/09/06 07:42:44;;;;;;;8.38;7.57;;;;;;;16.66;77.84;101735.22;7396299;19;20094;-67
2023/09/06 07:45:13;;;;;;;10.15;8.40;;;;;;;16.75;77.63;101729.63;7396997;19;20018;-67
2023/09/06 07:47:44;;;;;;;12.00;8.35;;;;;;;16.85;77.63;101732.00;7399863;19;20014;-66
2023/09/06 07:50:13;;;;;;;9.18;7.43;;;;;;;16.93;77.63;101724.66;7397856;19;20066;-67
2023/09/06 07:52:41;;;;;;;8.60;7.78;;;;;;;17.04;77.57;101727.84;7399253;19;20087;-67
2023/09/06 07:55:12;;;;;;;8.65;7.65;;;;;;;17.13;77.59;101724.00;7396432;19;20023;-67
2023/09/06 07:57:40;;;;;;;8.43;7.55;;;;;;;17.23;77.33;101721.91;7396732;19;20038;-68
2023/09/06 08:00:11;;;;;;;9.20;8.30;;;;;;;17.32;77.07;101728.69;7398677;19;20489;-67
2023/09/06 08:02:39;;;;;;;8.43;6.72;;;;;;;17.41;77.07;101731.91;7399418;19;20010;-67
2023/09/06 08:05:12;;;;;;;7.80;7.00;;;;;;;17.51;76.82;101735.06;7396996;19;20424;-67
2023/09/06 08:07:41;;;;;;;9.45;7.43;;;;;;;17.61;76.70;101743.59;7396903;19;20031;-67
2023/09/06 08:10:13;;;;;;;8.07;7.25;;;;;;;17.71;76.64;101734.38;7398584;19;20010;-67
2023/09/06 08:12:41;;;;;;;10.02;7.75;;;;;;;17.80;76.42;101738.47;7399087;19;20011;-67
2023/09/06 08:15:10;;;;;;;9.35;7.93;;;;;;;17.90;75.96;101734.56;7396979;19;20431;-67
2023/09/06 08:17:39;;;;;;;10.00;7.78;;;;;;;18.00;76.10;101734.28;7398150;19;20035;-67
2023/09/06 08:20:14;;;;;;;7.97;7.28;;;;;;;18.11;75.48;101736.50;7397988;19;20036;-67
2023/09/06 08:22:44;;;;;;;9.63;7.43;;;;;;;18.21;75.27;101737.88;7398692;19;20034;-67
2023/09/06 08:25:13;;;;;;;8.02;6.70;;;;;;;18.32;75.01;101737.50;7396266;19;20010;-66
2023/09/06 08:27:42;;;;;;;7.15;6.45;;;;;;;18.39;74.98;101734.53;7395577;19;20359;-66
2023/09/06 08:30:13;;;;;;;8.30;6.75;;;;;;;18.50;74.61;101734.13;7397517;19;20010;-67
2023/09/06 08:32:42;;;;;;;10.38;6.88;;;;;;;18.58;73.93;101739.13;7396073;19;20015;-66
2023/09/06 08:35:14;;;;;;;8.80;7.50;;;;;;;18.69;74.03;101744.88;7395940;19;20018;-66
2023/09/06 08:37:45;;;;;;;7.63;6.25;;;;;;;18.80;73.34;101747.09;7397742;19;20038;-67
2023/09/06 08:40:15;;;;;;;7.70;6.75;;;;;;;18.92;72.88;101743.13;7395983;19;20371;-67
2023/09/06 08:42:47;;;;;;;7.97;6.32;;;;;;;19.02;72.50;101747.13;7393950;19;20018;-67
2023/09/06 08:45:20;;;;;;;7.70;6.45;;;;;;;19.16;72.19;101738.56;7394895;19;20023;-67
2023/09/06 08:47:48;;;;;;;6.82;6.15;;;;;;;19.30;71.52;101737.13;7395643;19;20011;-67
2023/09/06 08:50:20;;;;;;;6.15;5.55;;;;;;;19.44;71.01;101741.88;7397237;19;20014;-68
2023/09/06 08:52:50;;;;;;;8.07;6.72;;;;;;;19.58;70.57;101744.78;7396453;19;20481;-67
2023/09/06 08:55:19;;;;;;;7.82;6.03;;;;;;;19.73;70.54;101731.72;7394934;19;20385;-67
2023/09/06 08:57:49;;;;;;;6.97;5.50;;;;;;;19.85;69.72;101744.50;7396670;19;20431;-68
2023/09/06 09:00:20;;;;;;;6.72;6.10;;;;;;;19.95;69.54;101747.63;7396608;19;20082;-67
2023/09/06 09:02:48;;;;;;;7.00;6.30;;;;;;;20.05;69.28;101743.59;7397089;19;20015;-67
2023/09/06 09:05:19;;;;;;;10.95;6.47;;;;;;;20.16;68.79;101743.13;7395069;19;20038;-68
2023/09/06 09:07:49;;;;;;;8.68;5.70;;;;;;;20.25;68.27;101740.03;7397251;19;20023;-67
2023/09/06 09:10:17;;;;;;;7.07;6.38;;;;;;;20.34;67.70;101739.59;7396155;19;20587;-67
2023/09/06 09:12:47;;;;;;;8.20;6.20;;;;;;;20.45;67.95;101744.41;7394628;19;20022;-68
2023/09/06 09:15:16;;;;;;;7.22;6.00;;;;;;;20.54;67.41;101748.44;7395054;19;20028;-68
2023/09/06 09:17:44;;;;;;;6.60;5.93;;;;;;;20.62;66.85;101740.06;7395205;19;20021;-67
2023/09/06 09:20:13;;;;;;;6.40;5.80;;;;;;;20.71;66.68;101741.47;7395661;19;20509;-66
2023/09/06 09:22:44;;;;;;;9.20;5.82;;;;;;;20.80;66.88;101741.88;7394222;19;20018;-68
2023/09/06 09:25:14;;;;;;;5.97;5.38;;;;;;;20.92;66.15;101745.75;7395154;19;20023;-67
2023/09/06 09:27:44;;;;;;;7.20;5.60;;;;;;;21.02;66.01;101737.31;7395932;19;20038;-67
2023/09/06 09:30:14;;;;;;;6.53;5.72;;;;;;;21.14;65.02;101747.34;7395585;19;20026;-67
2023/09/06 09:32:43;;;;;;;11.45;5.97;;;;;;;21.22;64.83;101742.47;7395924;19;20041;-67
2023/09/06 09:35:13;;;;;;;6.93;5.78;;;;;;;21.31;64.23;101743.81;7394071;19;20019;-67
2023/09/06 09:37:52;;;;;;;5.97;5.38;;;;;;;21.40;63.79;101743.34;7395623;19;20029;-68
2023/09/06 09:40:22;;;;;;;9.70;5.53;;;;;;;21.53;63.50;101746.22;7395029;19;20074;-67
2023/09/06 09:42:55;;;;;;;6.60;5.00;;;;;;;21.63;62.83;101746.66;7394383;19;20014;-66
2023/09/06 09:45:25;;;;;;;6.32;5.40;;;;;;;21.76;62.50;101746.84;7394432;19;20011;-67
2023/09/06 09:47:54;;;;;;;5.95;5.40;;;;;;;21.86;62.47;101739.22;7395027;19;20018;-66
2023/09/06 09:50:24;;;;;;;8.98;5.65;;;;;;;21.95;61.41;101733.38;7394983;19;20030;-67
2023/09/06 09:52:55;;;;;;;7.35;5.53;;;;;;;22.02;60.88;101737.44;7394518;19;20006;-66
2023/09/06 09:55:35;;;;;;;5.80;4.93;;;;;;;22.11;60.09;101738.75;7392846;19;20018;-67
2023/09/06 09:58:06;;;;;;;7.00;5.05;;;;;;;22.18;59.74;101728.59;7395177;19;20357;-68
2023/09/06 10:00:39;;;;;;;6.07;4.65;;;;;;;22.26;59.71;101740.56;7394680;19;20011;-67
2023/09/06 10:03:08;;;;;;;4.97;4.45;;;;;;;22.34;59.08;101734.78;7394646;19;20041;-67
2023/09/06 10:05:38;;;;;;;5.32;4.82;;;;;;;22.44;58.29;101737.84;7392309;19;20486;-66
2023/09/06 10:08:11;;;;;;;5.60;4.28;;;;;;;22.54;58.14;101735.53;7393425;19;20024;-67
2023/09/06 10:10:41;;;;;;;5.25;4.50;;;;;;;22.63;57.41;101736.81;7393333;19;20019;-66
2023/09/06 10:13:10;;;;;;;6.30;4.40;;;;;;;22.72;57.35;101733.63;7392418;19;20481;-67
2023/09/06 10:15:41;;;;;;;6.53;4.40;;;;;;;22.80;56.99;101744.75;7391981;19;20024;-66
2023/09/06 10:18:09;;;;;;;4.65;4.25;;;;;;;22.87;56.31;101738.06;7392358;19;20021;-67
2023/09/06 10:20:39;;;;;;;6.10;4.57;;;;;;;22.97;56.10;101737.56;7394566;19;20032;-66
2023/09/06 10:23:12;;;;;;;6.20;5.07;;;;;;;23.03;56.02;101740.72;7394375;19;20478;-68
2023/09/06 10:25:43;;;;;;;5.20;4.50;;;;;;;23.10;55.67;101735.84;7393048;19;20014;-67
2023/09/06 10:28:11;;;;;;;5.50;4.82;;;;;;;23.17;55.31;101742.63;7392274;19;20011;-67
2023/09/06 10:30:45;;;;;;;5.97;4.45;;;;;;;23.23;55.56;101734.22;7393594;19;20014;-68
2023/09/06 10:33:33;;;;;;;6.53;4.55;;;;;;;23.33;55.22;101741.69;7394811;19;20027;-67
2023/09/06 10:36:03;;;;;;;5.53;4.90;;;;;;;23.43;55.23;101743.72;7391798;19;20132;-67
2023/09/06 10:38:35;;;;;;;5.63;4.78;;;;;;;23.53;54.74;101741.38;7391839;19;20014;-67
2023/09/06 10:41:13;;;;;;;5.03;4.30;;;;;;;23.63;53.91;101738.97;7394353;19;20007;-67
2023/09/06 10:44:07;;;;;;;6.90;4.85;;;;;;;23.73;53.63;101742.81;7392445;19;20010;-68
2023/09/06 10:46:35;;;;;;;;;;;;;;;23.81;53.95;101745.03;7392572;19;20028;-68
2023/09/06 10:49:20;;;;;;;5.90;4.78;;;;;;;23.91;53.84;101732.81;7393693;19;19990;-70
2023/09/06 10:51:56;;;;;;;5.18;4.15;;;;;;;23.98;53.49;101733.28;7391337;19;20477;-67
2023/09/06 10:54:34;;;;;;;6.43;4.65;;;;;;;24.07;53.51;101729.16;7392818;19;20027;-68
2023/09/06 10:57:05;;;;;;;7.13;4.28;;;;;;;24.16;53.17;101722.34;7392889;19;20485;-68
2023/09/06 10:59:34;;;;;;;7.75;4.40;;;;;;;24.23;52.78;101727.22;7393778;19;20036;-67
2023/09/06 11:02:28;;;;;;;6.28;4.95;;;;;;;24.31;51.33;101718.66;7393494;19;20018;-67
2023/09/06 11:05:08;;;;;;;;;;;;;;;24.38;51.62;101721.84;7391715;19;20017;-67
2023/09/06 11:07:41;;;;;;;4.65;4.15;;;;;;;24.46;52.33;101724.00;7396581;19;19910;-68
2023/09/06 11:10:12;;;;;;;6.28;4.57;;;;;;;24.53;51.94;101720.81;7397170;19;20118;-67
2023/09/06 11:12:41;;;;;;;4.93;4.47;;;;;;;24.61;51.42;101722.16;7397613;19;20010;-67
2023/09/06 11:15:11;;;;;;;5.10;4.28;;;;;;;24.68;51.59;101716.31;7398688;19;20031;-67
2023/09/06 11:17:40;;;;;;;6.85;4.82;;;;;;;24.76;51.25;101725.66;7395809;19;20118;-67
2023/09/06 11:20:16;;;;;;;5.63;4.80;;;;;;;24.84;51.00;101720.66;7398505;19;20010;-67
2023/09/06 11:22:58;;;;;;;6.75;4.30;;;;;;;24.94;50.55;101723.59;7396672;19;20018;-67
2023/09/06 11:25:31;;;;;;;5.22;4.65;;;;;;;25.00;50.03;101715.97;7397591;19;20015;-67
2023/09/06 11:28:18;;;;;;;4.63;4.07;;;;;;;25.08;49.56;101711.91;7397046;19;20010;-67
2023/09/06 11:30:47;;;;;;;5.97;3.75;;;;;;;25.15;49.49;101710.50;7399307;19;20019;-67
2023/09/06 11:33:16;;;;;;;5.25;3.92;;;;;;;25.23;48.97;101705.47;7397665;19;20019;-67
2023/09/06 11:35:51;;;;;;;4.60;4.10;;;;;;;25.32;48.72;101710.19;7397657;19;20018;-67
2023/09/06 11:38:25;;;;;;;6.70;4.45;;;;;;;25.42;48.92;101699.72;7398202;19;20017;-66